KDUJ/DUJ METAR and TAF weather

Enter ICAO airport designator
Station Type Date Time Source
KDUJ METAR 2020/03/29 20:53 UTC NOAA

KDUJ 292053Z AUTO 24023G32KT 10SM SCT095 22/02 A2967 RMK AO2 PK WND 24037/2017 SLP037 T02220022 53006


Station Type Date Time Source
KDUJ Decoded METAR 2020/03/29 20:53 UTC NOAA

DU BOIS-JEFFERSON COUNTY, PA, United States (KDUJ) 41-11N 078-53W
Mar 29, 2020 - 04:53 PM EDT / 2020.03.29 2053 UTC
Wind: from the WSW (240 degrees) at 26 MPH (23 KT) gusting to 37 MPH (32 KT):0
Visibility: 10 mile(s):0
Sky conditions: partly cloudy
Temperature: 72.0 F (22.2 C)
Dew Point: 36.0 F (2.2 C)
Relative Humidity: 26%
Pressure (altimeter): 29.67 in. Hg (1004 hPa)
Pressure tendency: 0.02 inches (0.6 hPa) higher than three hours ago
ob: KDUJ 292053Z AUTO 24023G32KT 10SM SCT095 22/02 A2967 RMK AO2 PK WND 24037/2017 SLP037 T02220022 53006
cycle: 21

Station Type Date Time Source
KDUJ TAF 2020/03/29 19:48 UTC NOAA

TAF
AMD KDUJ 291845Z 2919/3018 18010G30KT P6SM VCSH SCT045
TEMPO 2919/2920 23025G45KT 5SM -TSRA OVC015CB
FM292000 21020G40KT P6SM BKN035
FM300100 22012G22KT P6SM BKN035
FM300600 24012G22KT P6SM BKN025
FM301100 24014G22KT P6SM VCSH BKN015

Example: see airport list